Airfield :
LOGIN :

Register | Disclaimer

   EN    FR    IT 

 










Legend :    VFR   Marginal VFR   IFR   Intensive IFR   Very Intensive IFR
Visi :
Ceiling :
>= 8 km
>= 3000ft
5 to 8 km
1000 to 3000 ft
1500m to 5 km
500 to 1000 ft
800 to 1500m
200 to 500 ft
< 800m
< 200 ft
Symbols :   Thunderstorms  Fog  Heavy snow  Heavy precipitations  Wind > 20 kt
SIGMETs :     Misc.  Thunderstorms  Icing  Turbulence  Mountain Waves  Volcanic Ashes






- Airport Elevation : 468 ft
- IATA code : GRO


LEGE - Girona Costa Brava

CURRENT METAR :
  • 261430Z 17012KT 140V200 9999 FEW025 25/13 Q1016 NOSIG

EXPIRED METARs :
  • 261400Z 18014KT 9999 FEW025 25/13 Q1017 NOSIG
  • 261330Z 18013KT 9999 FEW020 24/13 Q1017 NOSIG
  • 261300Z 18013KT 9999 FEW025 25/13 Q1017 NOSIG
  • 261230Z 18011KT 150V240 9999 FEW025 25/12 Q1017 NOSIG
  • 261200Z 20011KT 160V220 9999 FEW025 24/13 Q1018 NOSIG
  • 261130Z 18010KT 150V230 9999 FEW025 24/13 Q1018 NOSIG
  • 261100Z 18008KT 160V230 9999 FEW030 24/14 Q1018 NOSIG
  • 261030Z 19009KT 160V240 CAVOK 24/13 Q1018 NOSIG
  • 261000Z 15003KT CAVOK 23/13 Q1018 NOSIG

TAF TAF LEGE
Valid from the 26 at 12:00 until the 27 at 12:00 UTC


261100Z 2612/2712 19010KT CAVOK TX27/2613Z TN16/2702Z
BECMG 2618/2620 36005KT
TEMPO 2621/2705 3000 BR BKN005
PROB30
TEMPO 2622/2705 0800 FG VV002



MET'MAP, your aeronautical weather chart ! - Copyright ORBIFLY December 2007 - Disclaimer

ORBIFLY MET'MAP TEAM :

Programming & Development : Alexandra Zaïnal
Original concept : Baudouin d'Aumeries
Technical & hardware support : Manuel Goepfert
Assistance : Marc-Olivier Méhu




SOURCES & CREDITS :

   NOAA